createdAt,value
2022-12-18T00:00:14.165Z,4.77
2022-12-18T00:02:42.716Z,5.73
2022-12-18T00:05:12.675Z,8.33
2022-12-18T00:07:41.021Z,6.53
2022-12-18T00:10:10.474Z,6.57
2022-12-18T00:12:38.829Z,6.73
2022-12-18T00:15:08.432Z,7.00
2022-12-18T00:17:37.814Z,8.17
2022-12-18T00:20:07.747Z,5.47
2022-12-18T00:22:37.561Z,6.67
2022-12-18T00:25:06.786Z,7.20
2022-12-18T00:27:35.172Z,5.03
2022-12-18T00:30:03.625Z,6.17
2022-12-18T00:32:32.413Z,4.40
2022-12-18T00:35:00.774Z,7.00
2022-12-18T00:37:29.135Z,5.97
2022-12-18T00:39:59.257Z,6.90
2022-12-18T00:42:45.208Z,5.93
2022-12-18T00:45:13.706Z,3.40
2022-12-18T00:47:42.545Z,4.70
2022-12-18T00:50:11.983Z,5.87
2022-12-18T00:52:43.658Z,9.67
2022-12-18T00:55:14.190Z,5.53
2022-12-18T00:57:42.936Z,4.83
2022-12-18T01:00:15.910Z,4.73
2022-12-18T01:02:44.872Z,7.80
2022-12-18T01:05:15.545Z,6.03
2022-12-18T01:07:44.077Z,4.93
2022-12-18T01:10:15.251Z,5.83
2022-12-18T01:12:43.813Z,4.67
2022-12-18T01:15:14.367Z,8.97
2022-12-18T01:17:43.029Z,5.47
2022-12-18T01:20:13.786Z,6.00
2022-12-18T01:22:42.477Z,7.87
2022-12-18T01:25:13.012Z,6.47
2022-12-18T01:27:41.378Z,6.63
2022-12-18T01:30:11.201Z,7.77
2022-12-18T01:32:40.238Z,9.27
2022-12-18T01:35:10.313Z,10.37
2022-12-18T01:37:38.712Z,8.13
2022-12-18T01:40:09.597Z,8.80
2022-12-18T01:42:39.346Z,8.23
2022-12-18T01:45:27.570Z,8.20
2022-12-18T01:47:59.992Z,8.83
2022-12-18T01:50:34.808Z,6.70
2022-12-18T01:53:09.551Z,7.53
2022-12-18T01:55:43.459Z,9.07
2022-12-18T01:58:13.328Z,7.97
2022-12-18T02:00:41.896Z,9.37
2022-12-18T02:03:10.435Z,11.20
2022-12-18T02:05:47.031Z,10.97
2022-12-18T02:08:23.094Z,11.53
2022-12-18T02:11:02.390Z,11.83
2022-12-18T02:13:42.742Z,10.57
2022-12-18T02:16:22.533Z,9.97
2022-12-18T02:18:58.087Z,9.37
2022-12-18T02:21:38.956Z,7.47
2022-12-18T02:24:26.397Z,6.97
2022-12-18T02:26:59.819Z,7.93
2022-12-18T02:29:34.062Z,9.13
2022-12-18T02:32:08.418Z,14.70
2022-12-18T02:34:41.450Z,10.57
2022-12-18T02:37:15.185Z,12.63
2022-12-18T02:39:46.672Z,9.77
2022-12-18T02:42:17.073Z,9.23
2022-12-18T02:44:47.176Z,14.23
2022-12-18T02:47:19.708Z,12.00
2022-12-18T02:50:04.513Z,10.77
2022-12-18T02:52:41.333Z,9.17
2022-12-18T02:55:25.666Z,9.70
2022-12-18T02:58:00.270Z,12.50
2022-12-18T03:00:37.291Z,8.53
2022-12-18T03:03:14.535Z,11.83
2022-12-18T03:05:49.593Z,9.80
2022-12-18T03:08:23.761Z,9.50
2022-12-18T03:10:56.687Z,8.90
2022-12-18T03:13:33.682Z,10.53
2022-12-18T03:16:04.570Z,8.80
2022-12-18T03:18:38.616Z,10.43
2022-12-18T03:21:10.101Z,9.30
2022-12-18T03:23:47.003Z,11.07
2022-12-18T03:26:21.543Z,12.43
2022-12-18T03:28:59.381Z,9.00
2022-12-18T03:31:31.042Z,9.27
2022-12-18T03:34:03.480Z,10.60
2022-12-18T03:36:34.983Z,9.70
2022-12-18T03:39:03.377Z,11.10
2022-12-18T03:41:37.853Z,7.53
2022-12-18T03:44:16.048Z,9.83
2022-12-18T03:46:56.741Z,9.50
2022-12-18T03:49:34.607Z,11.30
2022-12-18T03:52:06.847Z,9.67
2022-12-18T03:54:37.392Z,8.97
2022-12-18T03:57:12.019Z,10.93
2022-12-18T03:59:42.915Z,10.50
2022-12-18T04:02:11.843Z,9.10
2022-12-18T04:04:42.261Z,9.70
2022-12-18T04:07:11.405Z,6.97
2022-12-18T04:09:43.820Z,9.30
2022-12-18T04:12:12.204Z,10.50
2022-12-18T04:14:42.010Z,10.30
2022-12-18T04:17:10.375Z,8.17
2022-12-18T04:19:38.716Z,10.67
2022-12-18T04:22:07.069Z,7.87
2022-12-18T04:24:35.580Z,9.77
2022-12-18T04:27:04.017Z,11.43
2022-12-18T04:29:32.957Z,11.10
2022-12-18T04:32:02.760Z,11.43
2022-12-18T04:34:31.628Z,10.07
2022-12-18T04:36:59.972Z,10.97
2022-12-18T04:39:28.411Z,9.17
2022-12-18T04:41:56.763Z,10.60
2022-12-18T04:44:25.588Z,8.10
2022-12-18T04:46:53.948Z,12.83
2022-12-18T04:49:24.327Z,8.30
2022-12-18T04:51:54.020Z,9.80
2022-12-18T04:54:22.713Z,10.33
2022-12-18T04:56:51.074Z,9.53
2022-12-18T04:59:19.402Z,7.70
2022-12-18T05:01:48.118Z,11.50
2022-12-18T05:04:16.642Z,13.77
2022-12-18T05:06:47.195Z,12.13
2022-12-18T05:09:16.358Z,11.90
2022-12-18T05:11:44.915Z,10.30
2022-12-18T05:14:14.751Z,11.00
2022-12-18T05:16:43.297Z,7.77
2022-12-18T05:19:12.507Z,11.93
2022-12-18T05:21:41.498Z,9.60
2022-12-18T05:24:11.240Z,9.90
2022-12-18T05:26:39.649Z,9.17
2022-12-18T05:29:07.957Z,13.53
2022-12-18T05:31:39.820Z,15.07
2022-12-18T05:34:08.502Z,12.33
2022-12-18T05:36:36.878Z,11.37
2022-12-18T05:39:05.632Z,9.77
2022-12-18T05:41:35.882Z,8.80
2022-12-18T05:44:04.308Z,9.67
2022-12-18T05:46:34.371Z,9.13
2022-12-18T05:49:03.100Z,8.93
2022-12-18T05:51:32.496Z,7.07
2022-12-18T05:54:00.828Z,9.83
2022-12-18T05:56:29.210Z,8.47
2022-12-18T05:58:58.922Z,12.50
2022-12-18T06:01:29.364Z,11.37
2022-12-18T06:03:58.067Z,12.80
2022-12-18T06:06:29.584Z,12.93
2022-12-18T06:08:59.118Z,9.20
2022-12-18T06:11:29.012Z,10.70
2022-12-18T06:14:00.690Z,10.13
2022-12-18T06:16:30.707Z,8.83
2022-12-18T06:19:00.037Z,9.10
2022-12-18T06:21:29.159Z,12.53
2022-12-18T06:23:57.764Z,14.70
2022-12-18T06:26:28.589Z,13.07
2022-12-18T06:28:58.465Z,12.17
2022-12-18T06:31:27.622Z,14.77
2022-12-18T06:33:56.208Z,10.90
2022-12-18T06:36:24.676Z,13.97
2022-12-18T06:38:53.047Z,10.97
2022-12-18T06:41:23.896Z,11.50
2022-12-18T06:43:56.820Z,12.13
2022-12-18T06:46:29.316Z,10.00
2022-12-18T06:48:57.719Z,8.13
2022-12-18T06:51:28.777Z,12.17
2022-12-18T06:53:57.200Z,11.73
2022-12-18T06:56:25.560Z,12.80
2022-12-18T06:58:54.025Z,11.10
2022-12-18T07:01:23.131Z,10.73
2022-12-18T07:03:56.757Z,13.00
2022-12-18T07:06:27.941Z,19.50
2022-12-18T07:08:56.927Z,12.50
2022-12-18T07:11:25.778Z,14.67
2022-12-18T07:13:55.562Z,13.20
2022-12-18T07:16:25.881Z,13.53
2022-12-18T07:18:57.536Z,12.80
2022-12-18T07:21:26.983Z,11.57
2022-12-18T07:23:55.479Z,11.63
2022-12-18T07:26:24.487Z,12.60
2022-12-18T07:28:53.023Z,14.77
2022-12-18T07:31:23.469Z,13.40
2022-12-18T07:33:52.865Z,12.00
2022-12-18T07:36:26.951Z,13.37
2022-12-18T07:38:55.322Z,14.67
2022-12-18T07:41:24.038Z,14.87
2022-12-18T07:43:52.369Z,11.00
2022-12-18T07:46:22.080Z,16.30
2022-12-18T07:48:50.657Z,13.33
2022-12-18T07:51:20.979Z,12.77
2022-12-18T07:53:52.564Z,9.27
2022-12-18T07:56:27.869Z,11.83
2022-12-18T07:58:57.045Z,9.30
2022-12-18T08:01:25.858Z,13.87
2022-12-18T08:03:54.421Z,12.23
2022-12-18T08:06:24.884Z,12.67
2022-12-18T08:08:54.977Z,11.80
2022-12-18T08:11:24.527Z,12.87
2022-12-18T08:13:53.266Z,18.63
2022-12-18T08:16:22.651Z,14.33
2022-12-18T08:18:51.227Z,16.50
2022-12-18T08:21:24.388Z,12.93
2022-12-18T08:23:54.643Z,11.93
2022-12-18T08:26:24.252Z,14.80
2022-12-18T08:28:53.404Z,17.20
2022-12-18T08:31:22.161Z,13.67
2022-12-18T08:33:53.292Z,15.77
2022-12-18T08:36:25.000Z,15.50
2022-12-18T08:38:54.885Z,15.13
2022-12-18T08:41:23.661Z,18.63
2022-12-18T08:44:09.342Z,16.90
2022-12-18T08:46:40.190Z,15.47
2022-12-18T08:49:10.565Z,12.83
2022-12-18T08:51:41.090Z,17.53
2022-12-18T08:54:09.737Z,15.17
2022-12-18T08:56:38.120Z,14.40
2022-12-18T08:59:06.517Z,15.23
2022-12-18T09:01:35.328Z,17.57
2022-12-18T09:04:04.012Z,14.53
2022-12-18T09:06:33.130Z,16.13
2022-12-18T09:09:02.943Z,16.40
2022-12-18T09:11:33.785Z,14.57
2022-12-18T09:14:03.672Z,15.40
2022-12-18T09:16:35.947Z,23.93
2022-12-18T09:19:07.421Z,13.57
2022-12-18T09:21:37.616Z,20.00
2022-12-18T09:24:09.253Z,14.40
2022-12-18T09:26:38.145Z,18.97
2022-12-18T09:29:08.432Z,15.10
2022-12-18T09:31:37.821Z,14.80
2022-12-18T09:34:06.257Z,18.20
2022-12-18T09:36:34.700Z,22.00
2022-12-18T09:39:07.799Z,17.77
2022-12-18T09:41:45.598Z,17.40
2022-12-18T09:44:24.524Z,16.83
2022-12-18T09:47:05.465Z,20.73
2022-12-18T09:49:38.763Z,18.13
2022-12-18T09:52:16.024Z,21.30
2022-12-18T09:54:49.710Z,17.43
2022-12-18T09:57:23.878Z,19.27
2022-12-18T09:59:58.691Z,17.50
2022-12-18T10:02:32.197Z,14.27
2022-12-18T10:05:08.925Z,14.90
2022-12-18T10:07:59.751Z,17.57
2022-12-18T10:10:42.321Z,20.87
2022-12-18T10:13:25.284Z,12.83
2022-12-18T10:16:11.891Z,16.00
2022-12-18T10:19:02.629Z,15.47
2022-12-18T10:21:41.773Z,14.50
2022-12-18T10:24:23.727Z,17.97
2022-12-18T10:26:54.039Z,17.43
2022-12-18T10:29:24.466Z,18.23
2022-12-18T10:31:52.818Z,16.67
2022-12-18T10:34:21.236Z,20.77
2022-12-18T10:36:50.480Z,15.50
2022-12-18T10:39:23.295Z,21.73
2022-12-18T10:41:51.687Z,15.03
2022-12-18T10:44:22.445Z,16.27
2022-12-18T10:46:57.131Z,16.80
2022-12-18T10:49:29.068Z,23.83
2022-12-18T10:52:14.411Z,20.80
2022-12-18T10:54:49.915Z,19.08
2022-12-18T10:57:34.718Z,16.97
2022-12-18T11:00:31.624Z,20.33
2022-12-18T11:03:01.615Z,16.93
2022-12-18T11:05:33.246Z,19.10
2022-12-18T11:08:03.298Z,16.77
2022-12-18T11:10:35.725Z,15.60
2022-12-18T11:13:18.906Z,14.67
2022-12-18T11:15:47.989Z,14.63
2022-12-18T11:18:27.366Z,19.47
2022-12-18T11:20:59.606Z,17.93
2022-12-18T11:23:29.360Z,15.57
2022-12-18T11:26:01.494Z,21.40
2022-12-18T11:28:40.320Z,17.23
2022-12-18T11:31:32.410Z,14.93
2022-12-18T11:34:28.521Z,21.17
2022-12-18T11:37:00.651Z,21.63
2022-12-18T11:39:39.614Z,21.23
2022-12-18T11:42:16.490Z,13.27
2022-12-18T11:44:52.038Z,19.27
2022-12-18T11:47:30.756Z,18.23
2022-12-18T11:50:05.107Z,18.20
2022-12-18T11:52:40.332Z,19.83
2022-12-18T11:55:16.254Z,22.53
2022-12-18T11:57:55.039Z,21.53
2022-12-18T12:00:25.303Z,19.50
2022-12-18T12:03:42.985Z,22.07
2022-12-18T12:06:23.953Z,19.27
2022-12-18T12:09:05.009Z,20.77
2022-12-18T12:11:45.972Z,26.97
2022-12-18T12:14:37.623Z,18.17
2022-12-18T12:17:17.339Z,18.00
2022-12-18T12:19:58.525Z,16.80
2022-12-18T12:22:40.965Z,20.80
2022-12-18T12:25:31.672Z,19.00
2022-12-18T12:28:17.577Z,18.63
2022-12-18T12:31:03.869Z,15.40
2022-12-18T12:33:44.653Z,18.63
2022-12-18T12:36:24.291Z,16.97
2022-12-18T12:39:00.876Z,16.90
2022-12-18T12:41:53.780Z,16.70
2022-12-18T12:44:27.771Z,21.27
2022-12-18T12:47:04.422Z,15.70
2022-12-18T12:49:40.410Z,16.70
2022-12-18T12:52:17.884Z,22.63
2022-12-18T12:54:49.258Z,16.37
2022-12-18T12:57:24.660Z,15.83
2022-12-18T13:00:02.764Z,14.27
2022-12-18T13:02:40.255Z,20.20
2022-12-18T13:05:20.179Z,17.03
2022-12-18T13:07:58.546Z,17.40
2022-12-18T13:10:36.726Z,16.27
2022-12-18T13:13:09.374Z,21.33
2022-12-18T13:15:46.892Z,20.83
2022-12-18T13:18:23.206Z,18.70
2022-12-18T13:21:03.882Z,18.57
2022-12-18T13:23:38.762Z,19.40
2022-12-18T13:26:36.942Z,18.87
2022-12-18T13:29:07.301Z,24.50
2022-12-18T13:32:03.434Z,17.97
2022-12-18T13:34:33.537Z,16.20
2022-12-18T13:37:41.953Z,21.33
2022-12-18T13:40:57.364Z,21.10
2022-12-18T13:43:42.308Z,16.60
2022-12-18T13:46:24.164Z,18.80
2022-12-18T13:49:03.995Z,18.77
2022-12-18T13:51:36.377Z,20.77
2022-12-18T13:54:19.876Z,19.70
2022-12-18T13:56:50.688Z,21.63
2022-12-18T13:59:25.015Z,16.17
2022-12-18T14:01:57.715Z,17.50
2022-12-18T14:04:30.260Z,18.50
2022-12-18T14:07:05.007Z,19.53
2022-12-18T14:09:40.483Z,17.47
2022-12-18T14:12:35.735Z,20.60
2022-12-18T14:15:09.363Z,15.67
2022-12-18T14:17:39.090Z,22.67
2022-12-18T14:20:16.782Z,21.10
2022-12-18T14:22:48.136Z,22.23
2022-12-18T14:25:21.050Z,17.03
2022-12-18T14:27:53.634Z,19.10
2022-12-18T14:30:32.589Z,14.67
2022-12-18T14:33:06.743Z,20.03
2022-12-18T14:35:37.098Z,17.87
2022-12-18T14:38:25.395Z,19.73
2022-12-18T14:41:02.007Z,21.13
2022-12-18T14:43:34.041Z,24.53
2022-12-18T14:46:05.800Z,29.70
2022-12-18T14:48:40.649Z,26.07
2022-12-18T14:51:18.404Z,21.43
2022-12-18T14:53:54.322Z,24.10
2022-12-18T14:56:26.193Z,24.27
2022-12-18T14:58:58.403Z,26.43
2022-12-18T15:01:32.153Z,20.20
2022-12-18T15:04:03.371Z,21.33
2022-12-18T15:06:36.276Z,27.57
2022-12-18T15:09:22.551Z,20.30
2022-12-18T15:11:57.737Z,22.80
2022-12-18T15:14:42.765Z,28.57
2022-12-18T15:17:24.557Z,18.83
2022-12-18T15:20:03.249Z,22.43
2022-12-18T15:22:37.920Z,24.60
2022-12-18T15:25:37.941Z,31.03
2022-12-18T15:28:21.868Z,23.17
2022-12-18T15:31:27.443Z,20.30
2022-12-18T15:34:21.847Z,28.20
2022-12-18T15:36:53.262Z,22.20
2022-12-18T15:39:23.159Z,25.67
2022-12-18T15:42:10.176Z,24.43
2022-12-18T15:44:40.788Z,26.93
2022-12-18T15:47:15.580Z,23.00
2022-12-18T15:49:47.340Z,22.13
2022-12-18T15:52:27.395Z,22.87
2022-12-18T15:55:14.028Z,21.60
2022-12-18T15:57:44.473Z,21.53
2022-12-18T16:00:16.702Z,21.17
2022-12-18T16:02:47.567Z,23.47
2022-12-18T16:05:21.616Z,27.43
2022-12-18T16:07:54.313Z,21.60
2022-12-18T16:10:25.091Z,21.60
2022-12-18T16:12:55.504Z,18.20
2022-12-18T16:15:26.532Z,19.50
2022-12-18T16:17:57.308Z,22.03
2022-12-18T16:20:28.778Z,20.27
2022-12-18T16:22:59.525Z,19.00
2022-12-18T16:25:31.748Z,22.03
2022-12-18T16:28:02.194Z,19.83
2022-12-18T16:30:38.143Z,21.03
2022-12-18T16:33:08.646Z,22.60
2022-12-18T16:35:43.027Z,19.97
2022-12-18T16:38:13.254Z,21.47
2022-12-18T16:41:07.148Z,25.30
2022-12-18T16:43:36.833Z,27.97
2022-12-18T16:46:06.107Z,25.27
2022-12-18T16:48:35.945Z,19.23
2022-12-18T16:51:10.715Z,20.07
2022-12-18T16:53:40.882Z,16.90
2022-12-18T16:56:11.771Z,22.90
2022-12-18T16:58:41.296Z,19.60
2022-12-18T17:01:13.759Z,19.83
2022-12-18T17:03:45.252Z,20.60
2022-12-18T17:06:18.554Z,20.03
2022-12-18T17:08:49.962Z,18.33
2022-12-18T17:11:20.710Z,24.93
2022-12-18T17:13:50.313Z,17.17
2022-12-18T17:16:21.711Z,22.53
2022-12-18T17:18:51.669Z,15.87
2022-12-18T17:21:26.170Z,18.30
2022-12-18T17:23:56.784Z,24.13
2022-12-18T17:26:27.517Z,16.73
2022-12-18T17:28:59.742Z,16.17
2022-12-18T17:31:32.002Z,25.43
2022-12-18T17:34:04.852Z,19.53
2022-12-18T17:36:36.937Z,14.17
2022-12-18T17:39:19.254Z,19.33
2022-12-18T17:41:50.678Z,18.37
2022-12-18T17:44:23.967Z,17.43
2022-12-18T17:46:53.764Z,17.60
2022-12-18T17:49:23.609Z,21.87
2022-12-18T17:51:57.530Z,20.53
2022-12-18T17:54:27.760Z,20.83
2022-12-18T17:56:58.094Z,18.47
2022-12-18T17:59:30.552Z,16.20
2022-12-18T18:02:00.643Z,19.33
2022-12-18T18:04:30.679Z,16.63
2022-12-18T18:07:08.561Z,20.67
2022-12-18T18:09:38.434Z,19.87
2022-12-18T18:12:26.155Z,17.23
2022-12-18T18:14:56.968Z,20.17
2022-12-18T18:17:26.720Z,22.20
2022-12-18T18:19:57.402Z,18.80
2022-12-18T18:22:28.643Z,20.50
2022-12-18T18:24:58.095Z,19.43
2022-12-18T18:27:33.969Z,19.83
2022-12-18T18:30:10.212Z,20.17
2022-12-18T18:32:40.400Z,21.90
2022-12-18T18:35:19.456Z,18.77
2022-12-18T18:38:05.142Z,15.83
2022-12-18T18:40:35.415Z,20.97
2022-12-18T18:43:07.323Z,20.03
2022-12-18T18:45:37.220Z,18.87
2022-12-18T18:48:07.876Z,17.40
2022-12-18T18:50:38.818Z,13.57
2022-12-18T18:53:11.102Z,16.97
2022-12-18T18:55:41.041Z,16.27
2022-12-18T18:58:11.785Z,14.80
2022-12-18T19:00:41.685Z,13.10
2022-12-18T19:03:11.898Z,13.70
2022-12-18T19:05:47.615Z,18.57
2022-12-18T19:08:19.972Z,14.80
2022-12-18T19:10:54.523Z,12.70
2022-12-18T19:13:30.667Z,15.10
2022-12-18T19:16:07.551Z,15.03
2022-12-18T19:18:39.182Z,16.37
2022-12-18T19:21:09.712Z,14.77
2022-12-18T19:23:40.744Z,15.80
2022-12-18T19:26:28.844Z,18.97
2022-12-18T19:29:04.740Z,18.67
2022-12-18T19:31:36.675Z,17.83
2022-12-18T19:34:08.207Z,18.13
2022-12-18T19:36:41.022Z,13.00
2022-12-18T19:39:15.748Z,19.87
2022-12-18T19:41:45.704Z,17.00
2022-12-18T19:44:18.574Z,20.63
2022-12-18T19:46:51.941Z,17.47
2022-12-18T19:49:27.065Z,17.17
2022-12-18T19:51:59.012Z,14.83
2022-12-18T19:54:31.442Z,16.37
2022-12-18T19:57:02.108Z,16.20
2022-12-18T19:59:32.123Z,18.97
2022-12-18T20:02:02.305Z,17.97
2022-12-18T20:04:32.374Z,15.70
2022-12-18T20:07:02.672Z,16.47
2022-12-18T20:09:34.486Z,19.27
2022-12-18T20:12:04.495Z,17.93
2022-12-18T20:14:34.404Z,13.00
2022-12-18T20:17:03.879Z,38.30
2022-12-18T20:20:47.286Z,22.80
2022-12-18T20:22:23.548Z,20.40
2022-12-18T20:24:55.244Z,18.03
2022-12-18T20:27:24.972Z,20.37
2022-12-18T20:29:56.924Z,19.17
2022-12-18T20:32:35.380Z,16.50
2022-12-18T20:35:07.270Z,15.60
2022-12-18T20:37:36.561Z,12.03
2022-12-18T20:40:12.790Z,17.73
2022-12-18T20:42:43.274Z,19.13
2022-12-18T20:45:12.245Z,21.10
2022-12-18T20:47:42.061Z,23.50
2022-12-18T20:50:11.688Z,20.60
2022-12-18T20:52:40.900Z,19.17
2022-12-18T20:55:11.646Z,18.83
2022-12-18T20:57:40.268Z,18.50
2022-12-18T21:00:12.997Z,20.83
2022-12-18T21:02:45.481Z,16.20
2022-12-18T21:05:14.866Z,17.20
2022-12-18T21:07:44.320Z,18.80
2022-12-18T21:10:14.946Z,19.07
2022-12-18T21:12:58.915Z,18.73
2022-12-18T21:15:32.384Z,21.80
2022-12-18T21:18:01.080Z,16.53
2022-12-18T21:20:29.757Z,18.63
2022-12-18T21:23:02.820Z,18.30
2022-12-18T21:25:47.580Z,18.27
2022-12-18T21:28:20.256Z,19.73
2022-12-18T21:30:49.249Z,16.80
2022-12-18T21:33:17.640Z,18.90
2022-12-18T21:35:46.067Z,18.17
2022-12-18T21:38:14.525Z,18.57
2022-12-18T21:40:43.087Z,21.23
2022-12-18T21:43:30.218Z,21.70
2022-12-18T21:45:58.644Z,22.23
2022-12-18T21:48:28.178Z,20.10
2022-12-18T21:50:56.572Z,21.30
2022-12-18T21:53:25.015Z,16.47
2022-12-18T21:55:59.712Z,19.17
2022-12-18T21:58:29.520Z,17.53
2022-12-18T22:00:58.017Z,20.17
2022-12-18T22:03:26.598Z,25.50
2022-12-18T22:06:08.880Z,19.93
2022-12-18T22:08:42.588Z,20.87
2022-12-18T22:11:13.791Z,20.20
2022-12-18T22:13:44.297Z,23.17
2022-12-18T22:16:12.771Z,20.23
2022-12-18T22:18:41.219Z,18.53
2022-12-18T22:21:27.136Z,16.40
2022-12-18T22:23:58.619Z,21.40
2022-12-18T22:26:29.086Z,19.87
2022-12-18T22:29:16.132Z,15.43
2022-12-18T22:31:44.654Z,23.57
2022-12-18T22:34:13.270Z,18.07
2022-12-18T22:36:44.707Z,21.10
2022-12-18T22:39:15.913Z,15.53
2022-12-18T22:41:45.321Z,20.13
2022-12-18T22:44:16.424Z,16.37
2022-12-18T22:46:51.394Z,18.77
2022-12-18T22:49:35.155Z,19.17
2022-12-18T22:52:04.369Z,28.17
2022-12-18T22:54:32.883Z,22.37
2022-12-18T22:57:01.266Z,18.67
2022-12-18T22:59:30.974Z,19.17
2022-12-18T23:01:59.682Z,16.97
2022-12-18T23:04:31.284Z,17.63
2022-12-18T23:07:06.054Z,15.73
2022-12-18T23:09:35.179Z,22.33
2022-12-18T23:12:03.809Z,17.67
2022-12-18T23:14:33.564Z,18.53
2022-12-18T23:17:01.919Z,18.10
2022-12-18T23:19:30.283Z,17.40
2022-12-18T23:21:59.136Z,15.73
2022-12-18T23:24:27.866Z,18.23
2022-12-18T23:26:59.266Z,19.97
2022-12-18T23:29:27.877Z,22.53
2022-12-18T23:31:57.673Z,16.07
2022-12-18T23:34:26.138Z,16.10
2022-12-18T23:36:56.197Z,15.40
2022-12-18T23:39:29.352Z,16.27
2022-12-18T23:41:58.755Z,16.17
2022-12-18T23:44:27.502Z,18.60
2022-12-18T23:46:57.353Z,14.40
2022-12-18T23:49:25.809Z,15.07
2022-12-18T23:51:55.655Z,16.50
2022-12-18T23:54:32.869Z,18.23
2022-12-18T23:57:02.567Z,14.40
2022-12-18T23:59:30.941Z,17.63
